Time;durP1;ratioP1;P1;durP2;ratioP2;P2;SDS_P1;SDS_P2;PMS_P1;PMS_P2;Temp;Humidity;BMP_temperature;BMP_pressure;BME280_temperature;BME280_humidity;BME280_pressure;Samples;Min_cycle;Max_cycle;Signal;HPM_P1;HPM_P2
2024/01/06 00:00:50;;;;;;;91.57;87.03;;;;;;;;;;5027967;28;20277;-59
2024/01/06 00:03:15;;;;;;;93.78;88.80;;;;;;;;;;5031628;28;20033;-59
2024/01/06 00:05:40;;;;;;;92.05;87.47;;;;;;;;;;5028184;28;20580;-59
2024/01/06 00:08:06;;;;;;;90.65;86.15;;;;;;;;;;5032548;28;20305;-60
2024/01/06 00:10:31;;;;;;;90.90;86.43;;;;;;;;;;5028390;28;20105;-58
2024/01/06 00:12:57;;;;;;;88.47;84.00;;;;;;;;;;5030324;28;20041;-61
2024/01/06 00:15:23;;;;;;;83.20;79.05;;;;;;;;;;5028316;28;20037;-59
2024/01/06 00:17:48;;;;;;;84.88;80.68;;;;;;;;;;5032703;28;20112;-59
2024/01/06 00:20:14;;;;;;;87.63;82.97;;;;;;;;;;5032405;28;20126;-59
2024/01/06 00:22:39;;;;;;;85.32;81.05;;;;;;;;;;5031688;28;20458;-59
2024/01/06 00:25:05;;;;;;;90.80;86.18;;;;;;;;;;5031108;28;20370;-60
2024/01/06 00:27:30;;;;;;;85.25;81.05;;;;;;;;;;5033005;28;20033;-60
2024/01/06 00:29:55;;;;;;;82.93;78.82;;;;;;;;;;5030285;28;20289;-60
2024/01/06 00:32:21;;;;;;;78.68;74.68;;;;;;;;;;5032165;28;20095;-59
2024/01/06 00:34:47;;;;;;;78.32;74.45;;;;;;;;;;5028682;28;20045;-59
2024/01/06 00:37:12;;;;;;;82.03;77.90;;;;;;;;;;5029671;28;20104;-60
2024/01/06 00:39:38;;;;;;;76.97;73.15;;;;;;;;;;5015902;28;20167;-60
2024/01/06 00:42:03;;;;;;;78.53;74.57;;;;;;;;;;5030488;28;20374;-60
2024/01/06 00:44:29;;;;;;;75.63;71.85;;;;;;;;;;5028939;28;20036;-59
2024/01/06 00:46:54;;;;;;;81.45;77.38;;;;;;;;;;5030899;28;20041;-60
2024/01/06 00:49:19;;;;;;;78.22;74.32;;;;;;;;;;5031955;28;20036;-59
2024/01/06 00:51:45;;;;;;;78.47;74.45;;;;;;;;;;5029073;28;20033;-60
2024/01/06 00:54:10;;;;;;;77.45;73.60;;;;;;;;;;5028979;28;20439;-60
2024/01/06 00:56:35;;;;;;;74.13;70.43;;;;;;;;;;5034800;28;20033;-59
2024/01/06 00:59:01;;;;;;;75.28;71.53;;;;;;;;;;5027977;28;20034;-59
2024/01/06 01:01:26;;;;;;;77.97;73.75;;;;;;;;;;5032790;28;20372;-60
2024/01/06 01:03:51;;;;;;;79.95;75.93;;;;;;;;;;5027907;28;20128;-60
2024/01/06 01:06:17;;;;;;;78.15;74.20;;;;;;;;;;5031329;28;20446;-59
2024/01/06 01:08:42;;;;;;;75.85;72.07;;;;;;;;;;5030605;28;20036;-60
2024/01/06 01:11:08;;;;;;;76.90;73.03;;;;;;;;;;5030282;28;20463;-60
2024/01/06 01:13:33;;;;;;;82.20;78.13;;;;;;;;;;5030862;28;20132;-60
2024/01/06 01:15:58;;;;;;;79.95;75.93;;;;;;;;;;5027676;28;20039;-60
2024/01/06 01:18:24;;;;;;;82.22;78.18;;;;;;;;;;5031489;28;20033;-59
2024/01/06 01:20:49;;;;;;;83.25;79.13;;;;;;;;;;5026920;28;20339;-60
2024/01/06 01:23:14;;;;;;;77.85;73.97;;;;;;;;;;5031969;28;20463;-60
2024/01/06 01:25:40;;;;;;;81.00;76.93;;;;;;;;;;5031199;28;20032;-59
2024/01/06 01:28:05;;;;;;;83.78;79.63;;;;;;;;;;5032443;28;20091;-60
2024/01/06 01:30:32;;;;;;;83.80;79.65;;;;;;;;;;5026749;28;20337;-60
2024/01/06 01:32:57;;;;;;;80.38;76.28;;;;;;;;;;5028488;28;20047;-60
2024/01/06 01:35:23;;;;;;;83.65;79.43;;;;;;;;;;5032886;28;20025;-60
2024/01/06 01:37:48;;;;;;;79.63;75.65;;;;;;;;;;5031551;28;20033;-60
2024/01/06 01:40:14;;;;;;;80.85;76.55;;;;;;;;;;5032427;28;20481;-60
2024/01/06 01:42:43;;;;;;;77.72;73.43;;;;;;;;;;5032721;28;20393;-60
2024/01/06 01:45:09;;;;;;;76.22;72.43;;;;;;;;;;5028357;28;20034;-60
2024/01/06 01:47:35;;;;;;;82.95;78.80;;;;;;;;;;5030324;28;20094;-60
2024/01/06 01:50:01;;;;;;;79.63;75.68;;;;;;;;;;5028639;28;20144;-60
2024/01/06 01:52:26;;;;;;;79.68;75.72;;;;;;;;;;5031426;28;20110;-60
2024/01/06 01:54:52;;;;;;;82.30;78.20;;;;;;;;;;5030248;28;20079;-59
2024/01/06 01:57:18;;;;;;;80.93;76.90;;;;;;;;;;5029748;28;20053;-59
2024/01/06 01:59:44;;;;;;;78.78;74.72;;;;;;;;;;5031135;28;20118;-60
2024/01/06 02:02:09;;;;;;;77.65;73.80;;;;;;;;;;5032784;28;20033;-60
2024/01/06 02:04:35;;;;;;;83.03;78.93;;;;;;;;;;5033200;28;20512;-60
2024/01/06 02:07:00;;;;;;;78.57;74.07;;;;;;;;;;5029491;28;20403;-60
2024/01/06 02:09:29;;;;;;;79.65;75.65;;;;;;;;;;5032657;28;20115;-60
2024/01/06 02:11:56;;;;;;;84.55;80.40;;;;;;;;;;5031041;28;20456;-60
2024/01/06 02:14:21;;;;;;;85.50;81.13;;;;;;;;;;5032647;28;20447;-60
2024/01/06 02:16:47;;;;;;;82.07;78.00;;;;;;;;;;5031330;28;20044;-59
2024/01/06 02:19:13;;;;;;;83.22;79.05;;;;;;;;;;5029832;28;20024;-60
2024/01/06 02:21:43;;;;;;;84.22;80.05;;;;;;;;;;5033126;28;20056;-59
2024/01/06 02:24:09;;;;;;;81.80;77.70;;;;;;;;;;5027316;28;20029;-59
2024/01/06 02:26:34;;;;;;;79.47;75.50;;;;;;;;;;5026935;28;20052;-60
2024/01/06 02:28:59;;;;;;;79.90;75.90;;;;;;;;;;5028227;28;20063;-60
2024/01/06 02:31:25;;;;;;;78.38;74.47;;;;;;;;;;5027721;28;20627;-60
2024/01/06 02:33:50;;;;;;;77.70;73.85;;;;;;;;;;5030593;28;20525;-59
2024/01/06 02:36:15;;;;;;;74.55;70.78;;;;;;;;;;5028592;28;20041;-59
2024/01/06 02:38:41;;;;;;;73.00;69.35;;;;;;;;;;5029253;28;20112;-60
2024/01/06 02:41:06;;;;;;;74.30;70.60;;;;;;;;;;5029398;28;20684;-60
2024/01/06 02:43:31;;;;;;;74.70;70.97;;;;;;;;;;5029100;28;20049;-59
2024/01/06 02:45:56;;;;;;;73.18;69.43;;;;;;;;;;5025912;28;20055;-59
2024/01/06 02:48:22;;;;;;;70.25;66.72;;;;;;;;;;5030092;28;20033;-60
2024/01/06 02:50:47;;;;;;;68.70;65.20;;;;;;;;;;5030059;28;21072;-60
2024/01/06 02:53:12;;;;;;;65.97;62.67;;;;;;;;;;5031915;28;20304;-59
2024/01/06 02:55:38;;;;;;;69.32;65.80;;;;;;;;;;5031857;28;20136;-59
2024/01/06 02:58:04;;;;;;;62.85;59.67;;;;;;;;;;5032689;28;20048;-59
2024/01/06 03:00:29;;;;;;;63.42;60.22;;;;;;;;;;5033053;28;20029;-60
2024/01/06 03:02:54;;;;;;;64.78;61.55;;;;;;;;;;5032801;28;20033;-60
2024/01/06 03:05:20;;;;;;;62.53;59.38;;;;;;;;;;5033050;28;20030;-59
2024/01/06 03:07:45;;;;;;;61.95;58.80;;;;;;;;;;5032029;28;20400;-60
2024/01/06 03:10:10;;;;;;;66.68;63.28;;;;;;;;;;5030097;28;20368;-59
2024/01/06 03:12:36;;;;;;;68.07;64.70;;;;;;;;;;5033337;28;20390;-59
2024/01/06 03:15:01;;;;;;;66.35;62.22;;;;;;;;;;5027710;28;20095;-59
2024/01/06 03:17:28;;;;;;;66.05;62.72;;;;;;;;;;5032101;28;20116;-59
2024/01/06 03:19:54;;;;;;;65.07;61.80;;;;;;;;;;5031265;28;20063;-60
2024/01/06 03:22:19;;;;;;;69.75;66.20;;;;;;;;;;5032021;28;20439;-60
2024/01/06 03:24:45;;;;;;;68.57;65.07;;;;;;;;;;5034513;28;20368;-59
2024/01/06 03:27:10;;;;;;;72.18;68.55;;;;;;;;;;5034348;28;20373;-60
2024/01/06 03:29:36;;;;;;;71.60;68.03;;;;;;;;;;5032908;28;20033;-60
2024/01/06 03:32:01;;;;;;;71.10;67.47;;;;;;;;;;5031167;28;20052;-60
2024/01/06 03:34:26;;;;;;;66.55;63.20;;;;;;;;;;5032542;28;20057;-59
2024/01/06 03:36:52;;;;;;;68.72;65.28;;;;;;;;;;5028471;28;20087;-60
2024/01/06 03:39:17;;;;;;;72.78;69.15;;;;;;;;;;5033183;28;20371;-60
2024/01/06 03:41:42;;;;;;;68.57;64.88;;;;;;;;;;5032389;28;20408;-60
2024/01/06 03:44:08;;;;;;;67.40;64.00;;;;;;;;;;5032924;28;20431;-60
2024/01/06 03:46:35;;;;;;;69.65;66.13;;;;;;;;;;5031410;28;20041;-60
2024/01/06 03:49:00;;;;;;;71.00;67.32;;;;;;;;;;5032877;28;20060;-60
2024/01/06 03:51:26;;;;;;;71.57;67.75;;;;;;;;;;5030872;28;20041;-60
2024/01/06 03:53:51;;;;;;;73.20;69.30;;;;;;;;;;5030597;28;20041;-59
2024/01/06 03:56:16;;;;;;;68.13;64.72;;;;;;;;;;5031250;28;20164;-60
2024/01/06 03:58:42;;;;;;;65.10;61.83;;;;;;;;;;5032272;28;20040;-60
2024/01/06 04:01:07;;;;;;;64.05;60.83;;;;;;;;;;5029918;28;20024;-60
2024/01/06 04:03:32;;;;;;;67.35;63.88;;;;;;;;;;5032460;28;20039;-60
2024/01/06 04:05:58;;;;;;;69.40;65.93;;;;;;;;;;5030014;28;20112;-60
2024/01/06 04:08:23;;;;;;;67.53;64.15;;;;;;;;;;5028325;28;20036;-60
2024/01/06 04:10:48;;;;;;;60.65;57.63;;;;;;;;;;5032518;28;20033;-60
2024/01/06 04:13:15;;;;;;;58.45;55.50;;;;;;;;;;5033037;28;20116;-60
2024/01/06 04:15:40;;;;;;;59.70;56.67;;;;;;;;;;5030499;28;20044;-59
2024/01/06 04:18:06;;;;;;;59.45;56.45;;;;;;;;;;5031726;28;20180;-60
2024/01/06 04:20:32;;;;;;;58.80;55.85;;;;;;;;;;5032231;28;20070;-60
2024/01/06 04:22:57;;;;;;;59.08;55.97;;;;;;;;;;5030429;28;20744;-60
2024/01/06 04:25:23;;;;;;;56.55;53.67;;;;;;;;;;5032476;28;20119;-60
2024/01/06 04:27:49;;;;;;;58.58;55.47;;;;;;;;;;5033186;28;20044;-59
2024/01/06 04:30:15;;;;;;;58.00;55.00;;;;;;;;;;5030335;28;20474;-60
2024/01/06 04:32:41;;;;;;;58.45;55.45;;;;;;;;;;5032670;28;20056;-60
2024/01/06 04:35:07;;;;;;;62.80;59.42;;;;;;;;;;5031115;28;20313;-60
2024/01/06 04:37:32;;;;;;;61.17;58.10;;;;;;;;;;5031930;28;20037;-60
2024/01/06 04:39:58;;;;;;;68.03;64.60;;;;;;;;;;5031962;28;20028;-60
2024/01/06 04:42:23;;;;;;;63.20;60.05;;;;;;;;;;5032459;28;20138;-60
2024/01/06 04:44:49;;;;;;;64.13;60.85;;;;;;;;;;5024390;28;20029;-60
2024/01/06 04:47:15;;;;;;;67.13;63.75;;;;;;;;;;5028866;28;20029;-60
2024/01/06 04:49:40;;;;;;;65.78;62.45;;;;;;;;;;5032069;28;20044;-60
2024/01/06 04:52:05;;;;;;;65.75;62.47;;;;;;;;;;5030935;28;20051;-60
2024/01/06 04:54:31;;;;;;;60.65;57.58;;;;;;;;;;5037573;28;20344;-60
2024/01/06 04:56:58;;;;;;;58.90;55.90;;;;;;;;;;5032742;28;20459;-60
2024/01/06 04:59:23;;;;;;;60.40;57.30;;;;;;;;;;5031295;28;20036;-60
2024/01/06 05:01:51;;;;;;;61.60;58.53;;;;;;;;;;5029771;28;20555;-60
2024/01/06 05:04:16;;;;;;;61.08;57.95;;;;;;;;;;5030945;28;20371;-60
2024/01/06 05:06:41;;;;;;;61.45;58.35;;;;;;;;;;5031964;28;20041;-60
2024/01/06 05:09:07;;;;;;;60.40;57.35;;;;;;;;;;5031860;28;20032;-60
2024/01/06 05:11:32;;;;;;;56.53;53.67;;;;;;;;;;5032174;28;20041;-60
2024/01/06 05:13:57;;;;;;;60.90;57.60;;;;;;;;;;5031140;28;20041;-60
2024/01/06 05:16:23;;;;;;;60.80;57.75;;;;;;;;;;5031796;28;20026;-60
2024/01/06 05:18:48;;;;;;;58.90;55.92;;;;;;;;;;5028016;28;20028;-59
2024/01/06 05:21:13;;;;;;;59.40;56.40;;;;;;;;;;5031715;28;20072;-60
2024/01/06 05:23:39;;;;;;;58.65;55.70;;;;;;;;;;5027991;28;20041;-60
2024/01/06 05:26:04;;;;;;;61.70;58.58;;;;;;;;;;5031006;28;20086;-60
2024/01/06 05:28:31;;;;;;;59.28;56.22;;;;;;;;;;5030191;28;20155;-60
2024/01/06 05:30:56;;;;;;;60.50;57.45;;;;;;;;;;5028314;28;20544;-60
2024/01/06 05:33:22;;;;;;;61.28;58.20;;;;;;;;;;5029107;28;20033;-60
2024/01/06 05:35:47;;;;;;;62.58;59.35;;;;;;;;;;5032627;28;20045;-60
2024/01/06 05:38:13;;;;;;;67.60;64.22;;;;;;;;;;5031262;28;20030;-60
2024/01/06 05:40:38;;;;;;;69.88;66.40;;;;;;;;;;5028642;28;20025;-60
2024/01/06 05:43:03;;;;;;;71.03;67.45;;;;;;;;;;5030122;28;20430;-60
2024/01/06 05:45:29;;;;;;;66.72;63.40;;;;;;;;;;5032647;28;20037;-60
2024/01/06 05:47:54;;;;;;;64.80;61.53;;;;;;;;;;5029469;28;20375;-59
2024/01/06 05:50:19;;;;;;;67.25;63.85;;;;;;;;;;5027316;28;20079;-60
2024/01/06 05:52:47;;;;;;;66.38;63.03;;;;;;;;;;5034045;28;20512;-60
2024/01/06 05:55:12;;;;;;;66.90;63.00;;;;;;;;;;5030193;28;20033;-60
2024/01/06 05:57:37;;;;;;;67.63;64.22;;;;;;;;;;5027621;28;20045;-60
2024/01/06 06:00:04;;;;;;;67.10;63.72;;;;;;;;;;5028022;28;20083;-60
2024/01/06 06:02:30;;;;;;;65.13;61.78;;;;;;;;;;5032524;28;20703;-60
2024/01/06 06:04:55;;;;;;;64.85;61.63;;;;;;;;;;5032167;28;20044;-60
2024/01/06 06:07:20;;;;;;;65.13;61.85;;;;;;;;;;5029209;28;20041;-60
2024/01/06 06:09:47;;;;;;;63.83;60.55;;;;;;;;;;5030377;28;20370;-60
2024/01/06 06:12:13;;;;;;;65.10;61.83;;;;;;;;;;5028105;28;20061;-60
2024/01/06 06:14:38;;;;;;;66.03;62.58;;;;;;;;;;5043629;28;20072;-59
2024/01/06 06:17:04;;;;;;;67.38;63.85;;;;;;;;;;5028208;28;20559;-60
2024/01/06 06:19:29;;;;;;;70.97;67.13;;;;;;;;;;5035076;28;20080;-59
2024/01/06 06:21:54;;;;;;;71.57;67.93;;;;;;;;;;5030686;28;20025;-60
2024/01/06 06:24:20;;;;;;;70.63;67.10;;;;;;;;;;5029525;28;20343;-59
2024/01/06 06:26:45;;;;;;;72.38;68.80;;;;;;;;;;5034262;28;20450;-60
2024/01/06 06:29:10;;;;;;;70.97;67.43;;;;;;;;;;5035398;28;20068;-60
2024/01/06 06:31:36;;;;;;;73.03;69.35;;;;;;;;;;5036310;28;20037;-60
2024/01/06 06:34:01;;;;;;;76.22;72.35;;;;;;;;;;5034299;28;20402;-59
2024/01/06 06:36:26;;;;;;;71.93;68.32;;;;;;;;;;5034838;28;20045;-60
2024/01/06 06:38:53;;;;;;;74.00;70.32;;;;;;;;;;5031265;28;20083;-60
2024/01/06 06:41:19;;;;;;;66.15;62.85;;;;;;;;;;5034385;28;20107;-60
2024/01/06 06:43:45;;;;;;;70.40;66.82;;;;;;;;;;5031326;28;20026;-60
2024/01/06 06:46:10;;;;;;;74.13;70.40;;;;;;;;;;5037262;28;20552;-60
2024/01/06 06:48:36;;;;;;;72.60;68.95;;;;;;;;;;5032551;28;20470;-60
2024/01/06 06:51:02;;;;;;;71.85;68.28;;;;;;;;;;5027966;28;20104;-50
2024/01/06 06:53:27;;;;;;;70.53;66.93;;;;;;;;;;5033488;28;20053;-51
2024/01/06 06:55:53;;;;;;;70.28;66.72;;;;;;;;;;5034461;28;20082;-51
2024/01/06 06:58:18;;;;;;;69.18;65.72;;;;;;;;;;5033623;28;20025;-54
2024/01/06 07:00:43;;;;;;;70.63;67.10;;;;;;;;;;5031095;28;20074;-54
2024/01/06 07:03:09;;;;;;;68.75;65.30;;;;;;;;;;5034009;28;20061;-50
2024/01/06 07:05:34;;;;;;;70.32;66.80;;;;;;;;;;5033650;28;20087;-53
2024/01/06 07:08:00;;;;;;;74.35;70.63;;;;;;;;;;5033324;28;20065;-50
2024/01/06 07:10:25;;;;;;;70.72;67.15;;;;;;;;;;5033351;28;20031;-56
2024/01/06 07:12:51;;;;;;;67.93;64.53;;;;;;;;;;5033310;28;20413;-51
2024/01/06 07:15:16;;;;;;;73.28;69.63;;;;;;;;;;5029064;28;20111;-52
2024/01/06 07:17:42;;;;;;;78.88;74.95;;;;;;;;;;5032301;28;20552;-52
2024/01/06 07:20:07;;;;;;;72.97;69.28;;;;;;;;;;5032200;28;20037;-53
2024/01/06 07:22:36;;;;;;;76.70;72.88;;;;;;;;;;5032615;28;20033;-51
2024/01/06 07:25:01;;;;;;;71.57;67.97;;;;;;;;;;5032235;28;20048;-54
2024/01/06 07:27:27;;;;;;;80.10;76.10;;;;;;;;;;5035211;28;20037;-55
2024/01/06 07:29:52;;;;;;;82.30;78.18;;;;;;;;;;5029243;28;20029;-50
2024/01/06 07:32:17;;;;;;;84.95;80.72;;;;;;;;;;5033285;28;20075;-53
2024/01/06 07:34:43;;;;;;;83.78;79.47;;;;;;;;;;5031129;28;20044;-55
2024/01/06 07:37:09;;;;;;;80.93;76.90;;;;;;;;;;5027879;28;20441;-55
2024/01/06 07:39:34;;;;;;;78.07;74.18;;;;;;;;;;5032805;28;20131;-55
2024/01/06 07:41:59;;;;;;;87.68;83.25;;;;;;;;;;5028357;28;20074;-51
2024/01/06 07:44:25;;;;;;;80.03;75.80;;;;;;;;;;5030118;28;20041;-53
2024/01/06 07:46:53;;;;;;;83.10;78.97;;;;;;;;;;5032146;28;20721;-54
2024/01/06 07:49:18;;;;;;;81.93;77.80;;;;;;;;;;5032372;28;20025;-55
2024/01/06 07:51:44;;;;;;;83.30;77.68;;;;;;;;;;5033461;28;20034;-53
2024/01/06 07:54:09;;;;;;;80.43;76.38;;;;;;;;;;5032562;28;20090;-54
2024/01/06 07:56:35;;;;;;;83.43;79.28;;;;;;;;;;5032374;28;20048;-55
2024/01/06 07:59:04;;;;;;;87.85;83.53;;;;;;;;;;5027477;28;20034;-50
2024/01/06 08:01:30;;;;;;;88.93;84.47;;;;;;;;;;5042419;28;20021;-52
2024/01/06 08:03:55;;;;;;;90.95;86.45;;;;;;;;;;5025831;28;20735;-56
2024/01/06 08:06:21;;;;;;;100.57;95.45;;;;;;;;;;5029093;28;20381;-55
2024/01/06 08:08:46;;;;;;;98.38;93.18;;;;;;;;;;5028501;28;20033;-55
2024/01/06 08:11:12;;;;;;;99.10;94.10;;;;;;;;;;5030980;28;20044;-56
2024/01/06 08:13:37;;;;;;;91.55;87.03;;;;;;;;;;5030046;28;20546;-54
2024/01/06 08:16:04;;;;;;;94.65;89.93;;;;;;;;;;5030551;28;20092;-55
2024/01/06 08:18:29;;;;;;;94.97;90.28;;;;;;;;;;5027972;28;20033;-52
2024/01/06 08:20:54;;;;;;;93.53;88.85;;;;;;;;;;5030341;28;20090;-53
2024/01/06 08:23:20;;;;;;;96.10;91.35;;;;;;;;;;5032260;28;20040;-53
2024/01/06 08:25:46;;;;;;;93.50;88.88;;;;;;;;;;5033249;28;20116;-53
2024/01/06 08:28:11;;;;;;;88.90;84.50;;;;;;;;;;5029866;28;20044;-48
2024/01/06 08:30:37;;;;;;;96.68;91.90;;;;;;;;;;5031586;28;20091;-48
2024/01/06 08:33:02;;;;;;;92.88;88.30;;;;;;;;;;5030242;28;20025;-50
2024/01/06 08:35:27;;;;;;;89.75;85.32;;;;;;;;;;5032466;28;20685;-50
2024/01/06 08:37:53;;;;;;;92.97;87.57;;;;;;;;;;5030877;28;20064;-52
2024/01/06 08:40:18;;;;;;;88.97;84.53;;;;;;;;;;5028183;28;20087;-51
2024/01/06 08:42:44;;;;;;;90.30;85.78;;;;;;;;;;5029824;28;20523;-50
2024/01/06 08:45:09;;;;;;;94.20;89.53;;;;;;;;;;5030655;28;20039;-50
2024/01/06 08:47:34;;;;;;;91.10;86.60;;;;;;;;;;5030339;28;20038;-48
2024/01/06 08:50:00;;;;;;;91.03;86.53;;;;;;;;;;5029651;28;20061;-51
2024/01/06 08:52:25;;;;;;;94.75;90.07;;;;;;;;;;5027188;28;20245;-52
2024/01/06 08:54:50;;;;;;;96.18;91.32;;;;;;;;;;5032264;28;20034;-52
2024/01/06 08:57:16;;;;;;;92.22;87.65;;;;;;;;;;5029797;28;20461;-51
2024/01/06 08:59:41;;;;;;;92.85;88.22;;;;;;;;;;5029066;28;20430;-53
2024/01/06 09:02:07;;;;;;;90.00;85.50;;;;;;;;;;5030120;28;20051;-52
2024/01/06 09:04:33;;;;;;;91.80;87.22;;;;;;;;;;5030391;28;20038;-51
2024/01/06 09:06:58;;;;;;;95.22;90.45;;;;;;;;;;5030475;28;20047;-51
2024/01/06 09:09:24;;;;;;;91.65;86.97;;;;;;;;;;5029303;28;20056;-51
2024/01/06 09:11:49;;;;;;;91.43;86.88;;;;;;;;;;5031084;28;20036;-54
2024/01/06 09:14:16;;;;;;;87.95;83.60;;;;;;;;;;5028819;28;20030;-54
2024/01/06 09:16:42;;;;;;;87.78;83.30;;;;;;;;;;5030860;28;20447;-51
2024/01/06 09:19:07;;;;;;;91.88;87.28;;;;;;;;;;5030962;28;20029;-54
2024/01/06 09:21:32;;;;;;;85.63;81.35;;;;;;;;;;5030352;28;20057;-54
2024/01/06 09:23:58;;;;;;;81.32;77.28;;;;;;;;;;5026920;28;20067;-52
2024/01/06 09:26:23;;;;;;;87.03;82.53;;;;;;;;;;5028227;28;20086;-50
2024/01/06 09:28:49;;;;;;;84.03;79.85;;;;;;;;;;5030110;28;20052;-51
2024/01/06 09:31:14;;;;;;;83.32;79.15;;;;;;;;;;5029949;28;20041;-52
2024/01/06 09:33:39;;;;;;;82.90;78.80;;;;;;;;;;5026136;28;20056;-55
2024/01/06 09:36:05;;;;;;;85.95;81.65;;;;;;;;;;5031000;28;20694;-49
2024/01/06 09:38:30;;;;;;;83.38;79.22;;;;;;;;;;5027929;28;21187;-50
2024/01/06 09:40:57;;;;;;;83.80;79.60;;;;;;;;;;5029405;28;20033;-50
2024/01/06 09:43:23;;;;;;;86.72;82.40;;;;;;;;;;5026096;28;20366;-53
2024/01/06 09:45:57;;;;;;;89.68;85.20;;;;;;;;;;5028887;28;20145;-52
2024/01/06 09:48:28;;;;;;;79.68;75.72;;;;;;;;;;5028667;28;20021;-50
2024/01/06 09:50:56;;;;;;;84.80;80.50;;;;;;;;;;5029330;28;20025;-51
2024/01/06 09:53:27;;;;;;;85.35;81.07;;;;;;;;;;5029096;28;20049;-55
2024/01/06 09:55:54;;;;;;;84.38;80.10;;;;;;;;;;5025647;28;20039;-53
2024/01/06 09:58:19;;;;;;;81.40;77.35;;;;;;;;;;5027461;28;20090;-55
2024/01/06 10:00:48;;;;;;;79.68;75.68;;;;;;;;;;5034209;28;20558;-55
2024/01/06 10:03:13;;;;;;;82.53;78.43;;;;;;;;;;5028157;28;20029;-51
2024/01/06 10:05:38;;;;;;;80.15;75.75;;;;;;;;;;5030389;28;20426;-54
2024/01/06 10:08:04;;;;;;;82.90;78.78;;;;;;;;;;5031892;28;20101;-56
2024/01/06 10:10:30;;;;;;;85.25;80.80;;;;;;;;;;5028417;28;20037;-54
2024/01/06 10:12:55;;;;;;;87.57;83.22;;;;;;;;;;5030074;28;20041;-54
2024/01/06 10:15:20;;;;;;;86.97;82.32;;;;;;;;;;5032658;28;20506;-52
2024/01/06 10:17:46;;;;;;;87.20;82.85;;;;;;;;;;5032365;28;20330;-54
2024/01/06 10:20:12;;;;;;;85.32;81.07;;;;;;;;;;5035530;28;20029;-54
2024/01/06 10:22:41;;;;;;;92.40;87.80;;;;;;;;;;5031630;28;20547;-56
2024/01/06 10:25:07;;;;;;;88.72;84.15;;;;;;;;;;5028793;28;20051;-52
2024/01/06 10:27:40;;;;;;;89.03;84.60;;;;;;;;;;5031302;28;20156;-52
2024/01/06 10:30:07;;;;;;;92.03;87.45;;;;;;;;;;5027737;28;20033;-54
2024/01/06 10:32:33;;;;;;;90.28;85.78;;;;;;;;;;5031887;28;20141;-52
2024/01/06 10:35:01;;;;;;;86.35;82.03;;;;;;;;;;5032087;28;20040;-56
2024/01/06 10:37:27;;;;;;;85.93;81.63;;;;;;;;;;5031803;28;20418;-54
2024/01/06 10:40:11;;;;;;;80.03;76.03;;;;;;;;;;5029127;28;20632;-56
2024/01/06 10:42:39;;;;;;;85.43;81.13;;;;;;;;;;5029959;28;20047;-56
2024/01/06 10:45:07;;;;;;;83.28;79.03;;;;;;;;;;5028347;28;20048;-55
2024/01/06 10:47:35;;;;;;;84.60;80.32;;;;;;;;;;5032162;28;20035;-56
2024/01/06 10:50:00;;;;;;;92.22;87.68;;;;;;;;;;5030175;28;20059;-55
2024/01/06 10:52:27;;;;;;;93.88;89.13;;;;;;;;;;5033713;28;20049;-55
2024/01/06 10:54:54;;;;;;;88.88;84.43;;;;;;;;;;5031212;28;20227;-55
2024/01/06 10:57:20;;;;;;;86.10;81.78;;;;;;;;;;5028081;28;20095;-52
2024/01/06 10:59:49;;;;;;;90.10;85.60;;;;;;;;;;5031100;28;20038;-54
2024/01/06 11:02:16;;;;;;;92.65;88.00;;;;;;;;;;5031758;28;20044;-54
2024/01/06 11:04:44;;;;;;;88.82;84.18;;;;;;;;;;5028916;28;20118;-52
2024/01/06 11:07:10;;;;;;;90.18;85.70;;;;;;;;;;5032046;28;20463;-54
2024/01/06 11:09:39;;;;;;;84.38;79.80;;;;;;;;;;5029063;28;20025;-54
2024/01/06 11:12:06;;;;;;;75.65;71.72;;;;;;;;;;5031105;28;20120;-52
2024/01/06 11:14:37;;;;;;;76.57;72.72;;;;;;;;;;5031623;28;20446;-52
2024/01/06 11:17:02;;;;;;;;;;;;;;;;;;5033921;28;20043;-54
2024/01/06 11:19:34;;;;;;;67.05;63.70;;;;;;;;;;5029551;28;19925;-52
2024/01/06 11:22:28;;;;;;;70.50;66.72;;;;;;;;;;5029394;28;20091;-54
2024/01/06 11:24:56;;;;;;;75.38;71.60;;;;;;;;;;5030148;28;20026;-55
2024/01/06 11:27:28;;;;;;;76.13;72.30;;;;;;;;;;5028936;28;20033;-55
2024/01/06 11:29:58;;;;;;;74.18;70.38;;;;;;;;;;5027254;28;20026;-56
2024/01/06 11:32:33;;;;;;;76.43;72.57;;;;;;;;;;5033819;28;20029;-55
2024/01/06 11:35:06;;;;;;;68.88;65.38;;;;;;;;;;5029898;28;20172;-56
2024/01/06 11:37:52;;;;;;;67.97;64.57;;;;;;;;;;5031046;28;20045;-55
2024/01/06 11:40:20;;;;;;;65.47;62.15;;;;;;;;;;5029849;28;20389;-56
2024/01/06 11:43:02;;;;;;;66.20;62.85;;;;;;;;;;5030523;28;20073;-54
2024/01/06 11:45:28;;;;;;;57.70;54.70;;;;;;;;;;5028164;28;20046;-55
2024/01/06 11:47:58;;;;;;;57.08;54.20;;;;;;;;;;5032660;28;20446;-52
2024/01/06 11:50:25;;;;;;;52.28;49.50;;;;;;;;;;5032793;28;20033;-55
2024/01/06 11:52:51;;;;;;;51.25;48.55;;;;;;;;;;5034094;28;20253;-54
2024/01/06 11:55:18;;;;;;;50.17;47.60;;;;;;;;;;5031171;28;20524;-54
2024/01/06 11:57:44;;;;;;;49.17;46.67;;;;;;;;;;5028485;28;20029;-53
2024/01/06 12:00:10;;;;;;;49.63;47.05;;;;;;;;;;5028537;28;20102;-55
2024/01/06 12:02:36;;;;;;;54.47;51.58;;;;;;;;;;5027596;28;20043;-54
2024/01/06 12:05:01;;;;;;;52.60;49.92;;;;;;;;;;5030769;28;20030;-55
2024/01/06 12:07:27;;;;;;;55.25;52.38;;;;;;;;;;5031411;28;20041;-53
2024/01/06 12:10:01;;;;;;;55.42;52.53;;;;;;;;;;5029484;28;20021;-55
2024/01/06 12:12:27;;;;;;;48.03;45.58;;;;;;;;;;5031362;28;20037;-54
2024/01/06 12:14:52;;;;;;;49.38;46.75;;;;;;;;;;5030495;28;20305;-54
2024/01/06 12:17:21;;;;;;;50.25;47.65;;;;;;;;;;5031859;28;20087;-53
2024/01/06 12:19:46;;;;;;;50.72;48.13;;;;;;;;;;5031450;28;20037;-55
2024/01/06 12:22:13;;;;;;;49.08;46.58;;;;;;;;;;5031273;28;20025;-52
2024/01/06 12:24:39;;;;;;;52.45;49.22;;;;;;;;;;5027915;28;20797;-53
2024/01/06 12:27:08;;;;;;;48.85;46.35;;;;;;;;;;5032005;28;20039;-52
2024/01/06 12:29:33;;;;;;;51.80;49.20;;;;;;;;;;5027431;28;20033;-56
2024/01/06 12:31:59;;;;;;;47.85;45.35;;;;;;;;;;5030439;28;20052;-52
2024/01/06 12:34:25;;;;;;;51.05;48.45;;;;;;;;;;5028857;28;20042;-56
2024/01/06 12:36:53;;;;;;;48.28;45.80;;;;;;;;;;5029802;28;20514;-56
2024/01/06 12:39:18;;;;;;;49.15;46.53;;;;;;;;;;5029649;28;20477;-56
2024/01/06 12:41:44;;;;;;;49.15;46.55;;;;;;;;;;5029888;28;20039;-55
2024/01/06 12:44:09;;;;;;;45.45;43.15;;;;;;;;;;5026495;28;20045;-54
2024/01/06 12:46:35;;;;;;;44.53;42.13;;;;;;;;;;5030363;28;20032;-53
2024/01/06 12:49:00;;;;;;;44.42;42.05;;;;;;;;;;5029450;28;20040;-57
2024/01/06 12:51:26;;;;;;;44.45;42.13;;;;;;;;;;5024753;28;20045;-56
2024/01/06 12:53:51;;;;;;;44.78;42.47;;;;;;;;;;5031504;28;20047;-55
2024/01/06 12:56:17;;;;;;;43.90;41.65;;;;;;;;;;5031866;28;20041;-52
2024/01/06 12:58:43;;;;;;;48.05;45.55;;;;;;;;;;5029722;28;20029;-61
2024/01/06 13:01:09;;;;;;;44.05;41.78;;;;;;;;;;5029173;28;20056;-61
2024/01/06 13:03:34;;;;;;;44.60;42.33;;;;;;;;;;5031819;28;20037;-61
2024/01/06 13:06:00;;;;;;;43.92;41.63;;;;;;;;;;5032133;28;20060;-62
2024/01/06 13:08:27;;;;;;;44.78;42.47;;;;;;;;;;5033424;28;20119;-62
2024/01/06 13:10:53;;;;;;;44.28;41.97;;;;;;;;;;5032918;28;20033;-61
2024/01/06 13:13:18;;;;;;;47.20;44.55;;;;;;;;;;5031571;28;20031;-62
2024/01/06 13:15:45;;;;;;;47.03;44.55;;;;;;;;;;5029712;28;20530;-62
2024/01/06 13:18:12;;;;;;;48.67;45.03;;;;;;;;;;5036182;28;20044;-61
2024/01/06 13:20:40;;;;;;;43.67;41.42;;;;;;;;;;5033854;28;20124;-63
2024/01/06 13:23:06;;;;;;;46.92;44.53;;;;;;;;;;5027854;28;20053;-63
2024/01/06 13:25:32;;;;;;;44.97;42.63;;;;;;;;;;5031551;28;20018;-63
2024/01/06 13:27:57;;;;;;;44.42;42.13;;;;;;;;;;5029334;28;20045;-62
2024/01/06 13:30:23;;;;;;;44.58;42.30;;;;;;;;;;5027356;28;20032;-62
2024/01/06 13:32:50;;;;;;;46.42;44.03;;;;;;;;;;5033472;28;20049;-62
2024/01/06 13:35:16;;;;;;;46.17;43.78;;;;;;;;;;5030957;28;20033;-62
2024/01/06 13:37:43;;;;;;;45.50;43.00;;;;;;;;;;5030272;28;20158;-62
2024/01/06 13:40:08;;;;;;;45.63;43.33;;;;;;;;;;5033630;28;20296;-62
2024/01/06 13:42:34;;;;;;;45.72;43.38;;;;;;;;;;5032876;28;20044;-62
2024/01/06 13:45:03;;;;;;;46.92;44.42;;;;;;;;;;5030766;28;20447;-63
2024/01/06 13:47:29;;;;;;;46.75;44.17;;;;;;;;;;5030259;28;20037;-62
2024/01/06 13:49:56;;;;;;;46.50;44.10;;;;;;;;;;5040287;28;20040;-62
2024/01/06 13:52:22;;;;;;;46.95;44.47;;;;;;;;;;5029811;28;20102;-63
2024/01/06 13:54:47;;;;;;;46.05;43.70;;;;;;;;;;5034682;28;20072;-62
2024/01/06 13:57:13;;;;;;;45.13;42.75;;;;;;;;;;5029498;28;20029;-63
2024/01/06 13:59:42;;;;;;;45.60;43.28;;;;;;;;;;5031406;28;20565;-62
2024/01/06 14:02:09;;;;;;;45.13;42.83;;;;;;;;;;5034565;28;20029;-62
2024/01/06 14:04:34;;;;;;;44.92;42.63;;;;;;;;;;5031146;28;20037;-63
2024/01/06 14:07:01;;;;;;;45.88;43.30;;;;;;;;;;5027434;28;20017;-63
2024/01/06 14:09:29;;;;;;;48.42;45.92;;;;;;;;;;5026469;28;20025;-62